Time;durP1;ratioP1;P1;durP2;ratioP2;P2;SDS_P1;SDS_P2;PMS_P1;PMS_P2;Temp;Humidity;BMP_temperature;BMP_pressure;BME280_temperature;BME280_humidity;BME280_pressure;Samples;Min_cycle;Max_cycle;Signal;HPM_P1;HPM_P2
2022/12/13 00:00:17;;;;;;;33.27;21.47;;;-0.80;99.90;;;;;;4998266;28;20057;-85
2022/12/13 00:02:44;;;;;;;17.93;14.17;;;-0.80;99.90;;;;;;4998818;28;20505;-85
2022/12/13 00:05:10;;;;;;;22.37;17.13;;;-0.80;99.90;;;;;;4998760;28;20041;-84
2022/12/13 00:07:36;;;;;;;33.07;20.10;;;-0.90;99.90;;;;;;4998761;28;20022;-85
2022/12/13 00:10:03;;;;;;;23.60;18.37;;;-0.90;99.90;;;;;;4998461;28;20057;-85
2022/12/13 00:12:29;;;;;;;22.90;17.53;;;-0.90;99.90;;;;;;4998523;28;20030;-84
2022/12/13 00:14:55;;;;;;;14.73;13.30;;;-0.90;99.90;;;;;;4998455;28;20386;-85
2022/12/13 00:17:21;;;;;;;18.03;15.03;;;-0.90;99.90;;;;;;5014419;28;20041;-84
2022/12/13 00:19:47;;;;;;;17.73;14.43;;;-0.90;99.90;;;;;;5007145;28;20038;-84
2022/12/13 00:22:14;;;;;;;30.37;20.47;;;-1.00;99.90;;;;;;5028293;28;20039;-84
2022/12/13 00:24:40;;;;;;;14.43;12.97;;;-1.00;99.90;;;;;;5027359;28;20041;-85
2022/12/13 00:27:06;;;;;;;33.07;20.30;;;-1.00;99.90;;;;;;4995893;28;20043;-86
2022/12/13 00:29:33;;;;;;;34.57;19.73;;;-1.00;99.90;;;;;;5027558;28;20452;-85
2022/12/13 00:31:59;;;;;;;19.97;14.07;;;-1.00;99.90;;;;;;4995752;28;20043;-85
2022/12/13 00:34:25;;;;;;;36.37;22.23;;;-1.00;99.90;;;;;;4995896;28;20042;-84
2022/12/13 00:36:53;;;;;;;26.43;19.40;;;-1.00;99.90;;;;;;4995756;28;20035;-85
2022/12/13 00:39:19;;;;;;;23.00;16.03;;;-1.00;99.90;;;;;;5027199;28;20038;-85
2022/12/13 00:41:45;;;;;;;23.60;17.57;;;-1.00;99.90;;;;;;5027522;28;20419;-85
2022/12/13 00:44:12;;;;;;;30.17;18.97;;;-1.10;99.90;;;;;;5010749;28;20030;-86
2022/12/13 00:46:38;;;;;;;36.83;23.30;;;-1.10;99.90;;;;;;5027012;28;20041;-85
2022/12/13 00:49:04;;;;;;;25.93;17.63;;;-1.00;99.90;;;;;;4994844;28;20042;-84
2022/12/13 00:51:32;;;;;;;37.43;19.40;;;-1.00;99.90;;;;;;5010695;28;20030;-85
2022/12/13 00:53:58;;;;;;;19.00;15.20;;;-1.10;99.90;;;;;;4994381;28;20042;-85
2022/12/13 00:56:26;;;;;;;33.27;21.83;;;-1.10;99.90;;;;;;5022208;28;20042;-85
2022/12/13 00:58:52;;;;;;;32.00;20.37;;;-1.10;99.90;;;;;;5013909;28;20029;-85
2022/12/13 01:01:24;;;;;;;28.40;19.83;;;-1.10;99.90;;;;;;5013532;28;20034;-86
2022/12/13 01:03:52;;;;;;;19.30;15.93;;;-1.20;99.90;;;;;;4998069;28;20471;-85
2022/12/13 01:06:25;;;;;;;31.37;21.40;;;-1.20;99.90;;;;;;4997604;28;20026;-86
2022/12/13 01:08:51;;;;;;;40.87;22.37;;;-1.20;99.90;;;;;;4981504;28;20044;-84
2022/12/13 01:11:18;;;;;;;38.23;24.57;;;-1.20;99.90;;;;;;5013732;28;20018;-86
2022/12/13 01:13:44;;;;;;;16.03;12.00;;;-1.20;99.90;;;;;;4981449;28;20418;-86
2022/12/13 01:16:10;;;;;;;27.10;19.03;;;-1.20;99.90;;;;;;4997099;28;20506;-86
2022/12/13 01:18:36;;;;;;;38.73;22.23;;;-1.20;99.90;;;;;;4997399;28;20034;-85
2022/12/13 01:21:09;;;;;;;31.80;21.87;;;-1.20;99.90;;;;;;4996113;28;20496;-86
2022/12/13 01:23:35;;;;;;;35.73;23.03;;;-1.20;99.90;;;;;;5009967;28;20034;-86
2022/12/13 01:26:05;;;;;;;37.57;24.07;;;-1.20;99.90;;;;;;5026437;28;20523;-86
2022/12/13 01:28:31;;;;;;;38.30;20.97;;;-1.20;99.90;;;;;;5010326;28;20507;-86
2022/12/13 01:30:59;;;;;;;38.70;25.33;;;-1.10;99.90;;;;;;5009472;28;20038;-86
2022/12/13 01:33:25;;;;;;;30.47;23.27;;;-1.10;99.90;;;;;;5026674;28;20030;-86
2022/12/13 01:35:51;;;;;;;37.13;24.93;;;-1.10;99.90;;;;;;5009551;28;20034;-85
2022/12/13 01:38:17;;;;;;;37.00;24.77;;;-1.20;99.90;;;;;;5009855;28;20042;-86
2022/12/13 01:40:48;;;;;;;39.33;24.63;;;-1.20;99.90;;;;;;5010047;28;20042;-85
2022/12/13 01:43:14;;;;;;;;;;;-1.20;99.90;;;;;;4994178;28;20045;-85
2022/12/13 01:45:41;;;;;;;33.90;21.43;;;-1.20;99.90;;;;;;5009443;28;20274;-86
2022/12/13 01:48:13;;;;;;;35.00;22.23;;;-1.30;99.90;;;;;;5009867;28;20026;-86
2022/12/13 01:50:41;;;;;;;28.03;17.07;;;-1.30;99.90;;;;;;5026147;28;20031;-86
2022/12/13 01:53:08;;;;;;;32.37;20.17;;;-1.30;99.90;;;;;;5009752;28;20045;-87
2022/12/13 01:55:35;;;;;;;25.33;19.60;;;-1.40;99.90;;;;;;4998400;28;20037;-86
2022/12/13 01:58:02;;;;;;;20.80;17.60;;;-1.40;99.90;;;;;;5013105;28;20022;-87
2022/12/13 02:00:28;;;;;;;37.80;21.87;;;-1.30;99.90;;;;;;4980204;28;20414;-86
2022/12/13 02:02:55;;;;;;;31.90;21.20;;;-1.30;99.90;;;;;;4980653;28;20038;-87
2022/12/13 02:05:27;;;;;;;26.53;17.30;;;-1.40;99.90;;;;;;4980182;28;20049;-86
2022/12/13 02:07:54;;;;;;;38.47;24.53;;;-1.40;99.90;;;;;;5012758;28;20506;-85
2022/12/13 02:10:20;;;;;;;34.57;21.37;;;-1.30;99.90;;;;;;5013053;28;20364;-87
2022/12/13 02:12:46;;;;;;;29.43;20.73;;;-1.40;99.90;;;;;;4996560;28;20034;-86
2022/12/13 02:15:14;;;;;;;41.53;24.90;;;-1.40;99.90;;;;;;4996093;28;20026;-87
2022/12/13 02:18:12;;;;;;;35.17;24.20;;;-1.30;99.90;;;;;;4996469;28;20026;-86
2022/12/13 02:21:06;;;;;;;35.20;24.73;;;-1.30;99.90;;;;;;5016376;28;20057;-86
2022/12/13 02:23:51;;;;;;;35.37;24.57;;;-1.30;99.90;;;;;;5011524;28;20030;-86
2022/12/13 02:26:56;;;;;;;25.47;19.17;;;-1.20;99.90;;;;;;5011489;28;20157;-87
2022/12/13 02:29:24;;;;;;;54.90;22.30;;;-1.30;99.90;;;;;;5011168;28;20529;-86
2022/12/13 02:32:02;;;;;;;21.87;17.20;;;-1.40;99.90;;;;;;5027130;28;20038;-86
2022/12/13 02:34:42;;;;;;;34.90;20.93;;;-1.40;99.90;;;;;;4979445;28;20402;-87
2022/12/13 02:37:33;;;;;;;23.40;16.17;;;-1.40;99.90;;;;;;4995466;28;20539;-86
2022/12/13 02:40:08;;;;;;;39.03;23.47;;;-1.40;99.90;;;;;;4996416;28;20029;-86
2022/12/13 02:42:40;;;;;;;12.93;11.80;;;-1.40;99.90;;;;;;5012331;28;20037;-87
2022/12/13 02:45:13;;;;;;;28.53;19.37;;;-1.40;99.90;;;;;;5011644;28;20048;-86
2022/12/13 02:47:42;;;;;;;29.43;20.43;;;-1.40;99.90;;;;;;5011254;28;20045;-87
2022/12/13 02:50:08;;;;;;;37.53;23.23;;;-1.40;99.90;;;;;;5011028;28;20185;-87
2022/12/13 02:52:34;;;;;;;32.93;23.03;;;-1.30;99.90;;;;;;4995033;28;20037;-86
2022/12/13 02:55:05;;;;;;;26.73;18.30;;;-1.30;99.90;;;;;;5010978;28;20038;-86
2022/12/13 02:57:38;;;;;;;36.47;21.60;;;-1.30;99.90;;;;;;5012000;28;20632;-87
2022/12/13 03:00:10;;;;;;;31.30;20.20;;;-1.30;99.90;;;;;;5011183;28;20049;-86
2022/12/13 03:02:48;;;;;;;32.57;22.40;;;-1.30;99.90;;;;;;4986813;28;20046;-86
2022/12/13 03:08:29;;;;;;;19.73;15.23;;;-1.30;99.90;;;;;;4994333;28;20060;-87
2022/12/13 03:11:02;;;;;;;32.47;21.43;;;-1.30;99.90;;;;;;4992081;28;20029;-87
2022/12/13 03:13:37;;;;;;;38.50;22.93;;;-1.30;99.90;;;;;;4971248;28;20047;-86
2022/12/13 03:16:35;;;;;;;24.23;17.30;;;-1.20;99.90;;;;;;4972702;28;20030;-87
2022/12/13 03:19:03;;;;;;;16.47;14.93;;;-1.30;99.90;;;;;;4970856;28;20042;-87
2022/12/13 03:21:29;;;;;;;39.47;22.40;;;-1.30;99.90;;;;;;5023605;28;20040;-87
2022/12/13 03:23:55;;;;;;;21.23;14.93;;;-1.30;99.90;;;;;;5007610;28;20045;-88
2022/12/13 03:26:24;;;;;;;17.47;14.53;;;-1.30;99.90;;;;;;5013093;28;20062;-87
2022/12/13 03:28:50;;;;;;;35.83;19.90;;;-1.40;99.90;;;;;;4939998;28;20050;-86
2022/12/13 03:31:16;;;;;;;36.07;21.93;;;-1.40;99.90;;;;;;4942273;28;20477;-87
2022/12/13 03:33:42;;;;;;;41.97;24.07;;;-1.30;99.90;;;;;;4975468;28;20035;-87
2022/12/13 03:36:09;;;;;;;19.83;16.70;;;-1.30;99.90;;;;;;4982749;28;20034;-88
2022/12/13 03:38:35;;;;;;;35.77;20.60;;;-1.30;99.90;;;;;;4994643;28;20035;-87
2022/12/13 03:41:03;;;;;;;15.80;14.17;;;-1.30;99.90;;;;;;4976705;28;20046;-87
2022/12/13 03:43:29;;;;;;;15.33;13.80;;;-1.30;99.90;;;;;;4976881;28;20027;-88
2022/12/13 03:45:55;;;;;;;32.90;20.40;;;-1.40;99.90;;;;;;4976261;28;20043;-87
2022/12/13 03:48:22;;;;;;;22.83;16.57;;;-1.40;99.90;;;;;;4976378;28;20035;-87
2022/12/13 03:50:48;;;;;;;15.90;13.77;;;-1.40;99.90;;;;;;4960903;28;20040;-87
2022/12/13 03:53:14;;;;;;;37.53;21.27;;;-1.40;99.90;;;;;;4976470;28;20034;-86
2022/12/13 03:55:40;;;;;;;41.30;22.17;;;-1.40;99.90;;;;;;4987250;28;20056;-86
2022/12/13 03:58:06;;;;;;;32.40;20.57;;;-1.40;99.90;;;;;;4999066;28;20034;-86
2022/12/13 04:00:32;;;;;;;31.60;17.47;;;-1.30;99.90;;;;;;5014776;28;20038;-86
2022/12/13 04:02:58;;;;;;;33.83;20.93;;;-1.30;99.90;;;;;;5015093;28;20467;-86
2022/12/13 04:05:24;;;;;;;25.57;17.77;;;-1.30;99.90;;;;;;5016561;28;20029;-86
2022/12/13 04:07:50;;;;;;;36.33;23.97;;;-1.30;99.90;;;;;;5014995;28;20026;-85
2022/12/13 04:10:17;;;;;;;35.97;22.30;;;-1.30;99.90;;;;;;4982720;28;20421;-86
2022/12/13 04:15:27;;;;;;;18.90;15.87;;;-1.20;99.90;;;;;;5005024;28;20037;-85
2022/12/13 04:17:53;;;;;;;15.83;13.73;;;-1.30;99.90;;;;;;4982477;28;20037;-85
2022/12/13 04:20:19;;;;;;;27.13;19.70;;;-1.30;99.90;;;;;;5003166;28;20043;-85
2022/12/13 04:22:45;;;;;;;17.80;14.50;;;-1.30;99.90;;;;;;4963089;28;20050;-82
2022/12/13 04:25:11;;;;;;;15.63;13.90;;;-1.30;99.90;;;;;;4978811;28;20091;-85
2022/12/13 04:27:38;;;;;;;23.17;16.07;;;-1.30;99.90;;;;;;4995106;28;20038;-85
2022/12/13 04:30:05;;;;;;;38.43;22.07;;;-1.40;99.90;;;;;;4978440;28;20038;-85
2022/12/13 04:32:31;;;;;;;28.90;20.07;;;-1.30;99.90;;;;;;4962845;28;20038;-85
2022/12/13 04:34:57;;;;;;;41.07;23.87;;;-1.20;99.90;;;;;;4978946;28;20042;-85
2022/12/13 04:37:23;;;;;;;35.60;21.70;;;-1.20;99.90;;;;;;4978770;28;20383;-85
2022/12/13 04:39:50;;;;;;;34.30;22.10;;;-1.20;99.90;;;;;;4962591;28;20038;-85
2022/12/13 04:42:16;;;;;;;30.47;21.40;;;-1.20;99.90;;;;;;4978116;28;20049;-85
2022/12/13 04:44:44;;;;;;;28.50;19.20;;;-1.20;99.90;;;;;;4995572;28;20030;-85
2022/12/13 04:47:11;;;;;;;36.77;23.00;;;-1.20;99.90;;;;;;4962461;28;20035;-84
2022/12/13 04:49:37;;;;;;;34.13;20.67;;;-1.20;99.90;;;;;;4978455;28;20037;-85
2022/12/13 04:52:03;;;;;;;37.70;23.50;;;-1.30;99.90;;;;;;4978348;28;20034;-85
2022/12/13 04:54:31;;;;;;;37.40;22.93;;;-1.20;99.90;;;;;;4962310;28;20387;-84
2022/12/13 04:56:57;;;;;;;39.57;24.80;;;-1.20;99.90;;;;;;5010230;28;20033;-85
2022/12/13 04:59:23;;;;;;;26.77;18.80;;;-1.20;99.90;;;;;;4997557;28;20037;-85
2022/12/13 05:01:49;;;;;;;37.93;23.73;;;-1.20;99.90;;;;;;4997115;28;20046;-85
2022/12/13 05:04:16;;;;;;;32.87;21.47;;;-1.10;99.90;;;;;;4981677;28;20038;-86
2022/12/13 05:06:42;;;;;;;46.10;26.00;;;-1.00;99.90;;;;;;4997689;28;20033;-84
2022/12/13 05:09:08;;;;;;;36.20;23.13;;;-1.00;99.90;;;;;;5013809;28;20037;-86
2022/12/13 05:11:34;;;;;;;39.83;24.27;;;-0.90;99.90;;;;;;4997402;28;20033;-85
2022/12/13 05:14:00;;;;;;;38.03;24.17;;;-0.80;99.90;;;;;;4997186;28;20037;-84
2022/12/13 05:16:26;;;;;;;37.80;21.20;;;-0.90;99.90;;;;;;5013018;28;20049;-85
2022/12/13 05:18:52;;;;;;;42.50;25.43;;;-0.80;99.90;;;;;;4997390;28;20476;-86
2022/12/13 05:21:18;;;;;;;43.87;25.20;;;-0.90;99.90;;;;;;4978091;28;20064;-85
2022/12/13 05:23:44;;;;;;;38.77;25.53;;;-0.90;99.90;;;;;;5026608;28;20384;-85
2022/12/13 05:26:10;;;;;;;37.30;23.17;;;-0.80;99.90;;;;;;5009955;28;20054;-85
2022/12/13 05:28:36;;;;;;;40.00;24.00;;;-0.80;99.90;;;;;;5009763;28;20029;-84
2022/12/13 05:31:10;;;;;;;40.90;25.83;;;-0.90;99.90;;;;;;5025981;28;20026;-85
2022/12/13 05:33:36;;;;;;;41.27;23.63;;;-1.00;99.90;;;;;;5010028;28;20050;-85
2022/12/13 05:36:04;;;;;;;33.70;20.93;;;-1.00;99.90;;;;;;5010027;28;20053;-85
2022/12/13 05:38:30;;;;;;;40.50;24.60;;;-1.20;99.90;;;;;;5026423;28;20030;-85
2022/12/13 05:40:56;;;;;;;40.07;25.97;;;-1.20;99.90;;;;;;5026360;28;20038;-85
2022/12/13 05:43:23;;;;;;;44.17;24.23;;;-1.10;99.90;;;;;;5025892;28;20467;-84
2022/12/13 05:45:49;;;;;;;40.23;23.30;;;-1.10;99.90;;;;;;5009498;28;20030;-85
2022/12/13 05:48:15;;;;;;;17.20;15.30;;;-1.10;99.90;;;;;;5009807;28;20045;-85
2022/12/13 05:50:41;;;;;;;33.47;20.60;;;-1.20;99.90;;;;;;5010083;28;20034;-85
2022/12/13 05:53:08;;;;;;;36.67;23.60;;;-1.30;99.90;;;;;;4992780;28;20053;-85
2022/12/13 05:55:36;;;;;;;26.20;17.27;;;-1.30;99.90;;;;;;5013629;28;20041;-85
2022/12/13 05:58:02;;;;;;;41.30;23.57;;;-1.30;99.90;;;;;;4980224;28;20064;-86
2022/12/13 06:00:28;;;;;;;42.67;25.70;;;-1.30;99.90;;;;;;5012303;28;20490;-84
2022/12/13 06:02:54;;;;;;;39.97;24.90;;;-1.30;99.90;;;;;;4996474;28;20034;-84
2022/12/13 06:05:21;;;;;;;39.20;24.60;;;-1.20;99.90;;;;;;4996591;28;20034;-84
2022/12/13 06:07:47;;;;;;;37.30;22.57;;;-1.20;99.90;;;;;;5012778;28;20036;-85
2022/12/13 06:10:13;;;;;;;38.83;25.97;;;-1.30;99.90;;;;;;4996547;28;20038;-85
2022/12/13 06:12:39;;;;;;;38.63;23.47;;;-1.30;99.90;;;;;;5012410;28;20379;-84
2022/12/13 06:15:06;;;;;;;41.57;23.90;;;-1.20;99.90;;;;;;5012180;28;20046;-85
2022/12/13 06:17:33;;;;;;;35.07;22.87;;;-1.30;99.90;;;;;;4979858;28;20029;-84
2022/12/13 06:19:59;;;;;;;40.13;25.97;;;-1.30;99.90;;;;;;4987552;28;20030;-83
2022/12/13 06:22:26;;;;;;;39.90;24.93;;;-1.20;99.90;;;;;;5025583;28;20039;-84
2022/12/13 06:24:52;;;;;;;44.60;25.03;;;-1.30;99.90;;;;;;5025444;28;20033;-85
2022/12/13 06:27:18;;;;;;;46.33;26.77;;;-1.30;99.90;;;;;;4993573;28;20054;-84
2022/12/13 06:29:44;;;;;;;42.03;25.53;;;-1.30;99.90;;;;;;5009119;28;20031;-85
2022/12/13 06:32:10;;;;;;;43.17;26.50;;;-1.20;99.90;;;;;;4992717;28;20406;-85
2022/12/13 06:34:36;;;;;;;44.40;26.17;;;-1.20;99.90;;;;;;5008916;28;20034;-85
2022/12/13 06:37:04;;;;;;;45.33;26.70;;;-1.20;99.90;;;;;;5008512;28;20049;-84
2022/12/13 06:39:30;;;;;;;47.80;26.47;;;-1.30;99.90;;;;;;5009014;28;20407;-85
2022/12/13 06:41:56;;;;;;;41.87;23.30;;;-1.30;99.90;;;;;;5008535;28;20049;-85
2022/12/13 06:44:22;;;;;;;35.50;22.83;;;-1.30;99.90;;;;;;5008892;28;20053;-84
2022/12/13 06:46:48;;;;;;;35.50;22.80;;;-1.40;99.90;;;;;;5008418;28;20518;-85
2022/12/13 06:49:14;;;;;;;38.10;23.57;;;-1.40;99.90;;;;;;5024960;28;20034;-85
2022/12/13 06:51:41;;;;;;;36.83;24.17;;;-1.50;99.90;;;;;;5025063;28;20387;-85
2022/12/13 06:54:07;;;;;;;40.70;24.87;;;-1.50;99.90;;;;;;5024940;28;20037;-84
2022/12/13 06:56:33;;;;;;;43.17;24.33;;;-1.50;99.90;;;;;;5037691;28;20044;-85
2022/12/13 06:58:59;;;;;;;41.53;25.57;;;-1.50;99.90;;;;;;4995426;28;20026;-84
2022/12/13 07:01:25;;;;;;;37.97;24.47;;;-1.60;99.90;;;;;;4995035;28;20038;-84
2022/12/13 07:03:54;;;;;;;38.03;22.87;;;-1.60;99.90;;;;;;4995401;28;20034;-85
2022/12/13 07:06:22;;;;;;;36.27;21.97;;;-1.70;99.90;;;;;;4995314;28;20025;-84
2022/12/13 07:08:55;;;;;;;36.63;21.83;;;-1.80;99.90;;;;;;4979522;28;20052;-85
2022/12/13 07:11:23;;;;;;;35.67;22.50;;;-1.80;99.90;;;;;;4995899;28;20030;-85
2022/12/13 07:13:50;;;;;;;40.87;25.43;;;-1.80;99.90;;;;;;4979309;28;20046;-85
2022/12/13 07:16:16;;;;;;;42.47;24.63;;;-1.80;99.90;;;;;;4978757;28;20033;-85
2022/12/13 07:18:42;;;;;;;39.70;24.93;;;-1.80;99.90;;;;;;4995572;28;20053;-85
2022/12/13 07:21:09;;;;;;;41.90;26.87;;;-1.80;99.90;;;;;;4977529;28;20054;-86
2022/12/13 07:23:35;;;;;;;46.93;27.23;;;-1.80;99.90;;;;;;5008242;28;20042;-87
2022/12/13 07:26:02;;;;;;;41.30;24.83;;;-1.60;99.90;;;;;;5024406;28;20487;-85
2022/12/13 07:28:32;;;;;;;37.60;25.20;;;-1.60;99.90;;;;;;5008085;28;20061;-86
2022/12/13 07:31:04;;;;;;;44.13;26.10;;;-1.60;99.90;;;;;;5023846;28;20026;-85
2022/12/13 07:33:31;;;;;;;44.80;27.83;;;-1.70;99.90;;;;;;4991645;28;20050;-86
2022/12/13 07:36:10;;;;;;;38.87;23.97;;;-1.60;99.90;;;;;;4992367;28;20097;-86
2022/12/13 07:38:37;;;;;;;33.13;20.87;;;-1.60;99.90;;;;;;5024431;28;20397;-87
2022/12/13 07:41:04;;;;;;;34.90;17.43;;;-1.70;99.90;;;;;;5024554;28;20046;-85
2022/12/13 07:43:30;;;;;;;39.03;23.83;;;-1.70;99.90;;;;;;5008168;28;20384;-86
2022/12/13 07:45:58;;;;;;;33.03;22.60;;;-1.80;99.90;;;;;;5007899;28;20503;-85
2022/12/13 07:48:25;;;;;;;47.60;28.23;;;-1.90;99.90;;;;;;5024654;28;20470;-85
2022/12/13 07:50:52;;;;;;;16.87;15.13;;;-1.80;99.90;;;;;;5024750;28;20033;-85
2022/12/13 07:53:18;;;;;;;42.90;25.03;;;-1.70;99.90;;;;;;5008072;28;20046;-85
2022/12/13 07:55:44;;;;;;;44.10;27.80;;;-1.70;99.90;;;;;;5030461;28;20034;-86
2022/12/13 07:58:12;;;;;;;45.67;28.03;;;-1.70;99.90;;;;;;5011522;28;20391;-86
2022/12/13 08:00:39;;;;;;;49.63;28.20;;;-1.60;99.90;;;;;;4995015;28;20041;-86
2022/12/13 08:03:05;;;;;;;48.30;28.30;;;-1.50;99.90;;;;;;5012543;28;20467;-86
2022/12/13 08:05:32;;;;;;;49.57;29.27;;;-1.40;99.90;;;;;;4995226;28;20030;-86
2022/12/13 08:07:59;;;;;;;40.93;26.20;;;-1.40;99.90;;;;;;4995067;28;20042;-86
2022/12/13 08:10:25;;;;;;;46.87;28.40;;;-1.50;99.90;;;;;;4995044;28;20026;-86
2022/12/13 08:12:51;;;;;;;48.87;28.40;;;-1.40;99.90;;;;;;4978980;28;20482;-86
2022/12/13 08:15:17;;;;;;;38.67;25.97;;;-1.40;99.90;;;;;;4994605;28;20022;-86
2022/12/13 08:17:44;;;;;;;45.17;26.97;;;-1.50;99.90;;;;;;5012766;28;20030;-86
2022/12/13 08:20:10;;;;;;;39.27;25.10;;;-1.50;99.90;;;;;;4988412;28;20031;-86
2022/12/13 08:22:36;;;;;;;45.30;27.63;;;-1.30;99.90;;;;;;5011279;28;20050;-85
2022/12/13 08:25:02;;;;;;;47.40;29.47;;;-1.30;99.90;;;;;;5027854;28;20392;-86
2022/12/13 08:27:29;;;;;;;36.80;23.43;;;-1.10;99.90;;;;;;5027778;28;20050;-85
2022/12/13 08:29:55;;;;;;;40.30;24.97;;;-1.20;99.90;;;;;;5011445;28;20023;-87
2022/12/13 08:32:21;;;;;;;42.67;26.93;;;-1.30;99.90;;;;;;5011126;28;20511;-85
2022/12/13 08:34:47;;;;;;;45.73;26.80;;;-1.30;99.90;;;;;;4996100;28;20026;-87
2022/12/13 08:37:13;;;;;;;44.83;25.83;;;-1.30;99.90;;;;;;5027300;28;20030;-86
2022/12/13 08:39:39;;;;;;;37.13;22.77;;;-1.20;99.90;;;;;;5011229;28;20038;-86
2022/12/13 08:42:07;;;;;;;44.03;26.40;;;-1.20;99.90;;;;;;5011323;28;20050;-86
2022/12/13 08:44:33;;;;;;;39.20;26.23;;;-1.30;99.90;;;;;;5011300;28;20480;-86
2022/12/13 08:46:59;;;;;;;42.70;25.40;;;-1.20;99.90;;;;;;5010340;28;20031;-86
2022/12/13 08:49:25;;;;;;;43.53;26.07;;;-1.20;99.90;;;;;;4995377;28;20038;-85
2022/12/13 08:51:51;;;;;;;41.13;24.23;;;-1.30;99.90;;;;;;5010752;28;20050;-86
2022/12/13 08:54:17;;;;;;;25.13;18.63;;;-1.40;99.90;;;;;;5027330;28;20034;-85
2022/12/13 08:56:44;;;;;;;36.83;23.47;;;-1.40;99.90;;;;;;5025342;28;20030;-85
2022/12/13 08:59:10;;;;;;;42.13;26.03;;;-1.40;99.90;;;;;;5014148;28;20030;-85
2022/12/13 09:01:36;;;;;;;38.63;23.97;;;-1.20;99.90;;;;;;4981174;28;20521;-86
2022/12/13 09:04:02;;;;;;;42.53;23.90;;;-1.10;99.90;;;;;;4981860;28;20040;-86
2022/12/13 09:06:28;;;;;;;18.43;15.90;;;-1.10;99.90;;;;;;5013681;28;20495;-86
2022/12/13 09:08:54;;;;;;;22.27;13.50;;;-1.20;99.90;;;;;;4997699;28;20038;-86
2022/12/13 09:11:21;;;;;;;40.27;23.33;;;-1.20;99.90;;;;;;4997716;28;20042;-85
2022/12/13 09:13:47;;;;;;;28.40;19.03;;;-1.20;99.90;;;;;;4997730;28;20034;-86
2022/12/13 09:16:15;;;;;;;29.57;19.33;;;-1.20;99.90;;;;;;4997073;28;20030;-85
2022/12/13 09:18:41;;;;;;;32.77;22.27;;;-1.10;99.90;;;;;;4981704;28;20495;-86
2022/12/13 09:21:08;;;;;;;30.10;19.03;;;-1.10;99.90;;;;;;4960161;28;20404;-85
2022/12/13 09:23:34;;;;;;;22.77;17.10;;;-1.10;99.90;;;;;;4990712;28;20031;-86
2022/12/13 09:26:01;;;;;;;14.40;13.13;;;-1.10;99.90;;;;;;4990607;28;20053;-86
2022/12/13 09:28:28;;;;;;;30.47;20.83;;;-1.00;99.90;;;;;;4990597;28;20039;-85
2022/12/13 09:30:54;;;;;;;22.13;16.97;;;-1.00;99.90;;;;;;4990350;28;20023;-86
2022/12/13 09:33:21;;;;;;;20.20;17.03;;;-1.00;99.90;;;;;;4990532;28;20031;-85
2022/12/13 09:35:47;;;;;;;26.47;16.73;;;-1.00;99.90;;;;;;4990246;28;20058;-86
2022/12/13 09:38:13;;;;;;;30.63;21.03;;;-0.90;99.90;;;;;;4990687;28;20030;-86
2022/12/13 09:40:39;;;;;;;23.67;17.63;;;-0.90;99.90;;;;;;4990543;28;20463;-86
2022/12/13 09:43:06;;;;;;;13.37;12.20;;;-0.80;99.90;;;;;;4990539;28;20045;-85
2022/12/13 09:45:33;;;;;;;24.60;16.10;;;-0.80;99.90;;;;;;4989915;28;20057;-85
2022/12/13 09:48:00;;;;;;;25.10;18.00;;;-0.80;99.90;;;;;;4990482;28;20491;-85
2022/12/13 09:50:31;;;;;;;27.57;20.50;;;-0.80;99.90;;;;;;4989961;28;20468;-85
2022/12/13 09:52:58;;;;;;;18.33;16.47;;;-0.70;99.90;;;;;;4990159;28;20027;-86
2022/12/13 09:55:33;;;;;;;37.00;22.23;;;-0.70;99.90;;;;;;4996635;28;20033;-86
2022/12/13 09:58:00;;;;;;;28.50;18.83;;;-0.60;99.90;;;;;;4998071;28;20018;-85
2022/12/13 10:00:31;;;;;;;35.27;21.83;;;-0.60;99.90;;;;;;4996344;28;20030;-86
2022/12/13 10:02:58;;;;;;;32.63;21.57;;;-0.50;99.90;;;;;;4997153;28;20038;-86
2022/12/13 10:05:32;;;;;;;20.73;16.77;;;-0.40;99.90;;;;;;4996412;28;20355;-86
2022/12/13 10:07:59;;;;;;;32.00;22.83;;;-0.30;99.90;;;;;;4997373;28;20029;-87
2022/12/13 10:10:25;;;;;;;30.30;21.87;;;-0.20;99.90;;;;;;4980761;28;20363;-86
2022/12/13 10:13:02;;;;;;;32.60;21.90;;;0.00;99.90;;;;;;4996740;28;20502;-86
2022/12/13 10:15:28;;;;;;;26.27;20.10;;;0.10;99.90;;;;;;4981497;28;20037;-86
2022/12/13 10:17:55;;;;;;;25.23;17.93;;;0.20;99.90;;;;;;4996267;28;20486;-86
2022/12/13 10:20:23;;;;;;;27.53;18.97;;;0.00;99.90;;;;;;4985270;28;20042;-86
2022/12/13 10:22:49;;;;;;;35.83;23.67;;;0.00;99.90;;;;;;5025721;28;20397;-86
2022/12/13 10:25:15;;;;;;;33.87;22.63;;;0.00;99.90;;;;;;5025483;28;20022;-85
2022/12/13 10:27:45;;;;;;;32.93;22.77;;;0.10;99.90;;;;;;5025845;28;20038;-86
2022/12/13 10:30:15;;;;;;;29.10;20.00;;;0.20;99.90;;;;;;5025228;28;20035;-88
2022/12/13 10:32:57;;;;;;;34.83;21.80;;;0.30;99.90;;;;;;5009244;28;20034;-86
2022/12/13 10:35:37;;;;;;;22.17;18.03;;;0.30;99.90;;;;;;5025889;28;20274;-86
2022/12/13 10:38:12;;;;;;;29.20;20.80;;;0.30;99.90;;;;;;5009533;28;20050;-86
2022/12/13 10:40:39;;;;;;;23.03;18.13;;;0.40;99.90;;;;;;4993503;28;20030;-87
2022/12/13 10:43:21;;;;;;;22.27;18.20;;;0.40;99.90;;;;;;5009199;28;20051;-86
2022/12/13 10:46:12;;;;;;;26.30;19.87;;;0.50;99.90;;;;;;5008893;28;20110;-86
2022/12/13 10:48:48;;;;;;;20.80;17.17;;;0.60;99.90;;;;;;5025515;28;20031;-86
2022/12/13 10:51:18;;;;;;;19.27;17.43;;;0.60;99.90;;;;;;5009402;28;20034;-86
2022/12/13 10:53:53;;;;;;;24.90;19.80;;;0.60;99.90;;;;;;5025532;28;20025;-87
2022/12/13 10:56:19;;;;;;;33.57;20.33;;;0.70;99.90;;;;;;5036255;28;20045;-86
2022/12/13 10:58:51;;;;;;;37.60;25.30;;;0.70;99.90;;;;;;4980221;28;20479;-85
2022/12/13 11:01:17;;;;;;;26.20;21.00;;;0.70;99.90;;;;;;4979184;28;20045;-85
2022/12/13 11:03:57;;;;;;;19.23;15.80;;;0.80;99.90;;;;;;5012258;28;20045;-86
2022/12/13 11:06:24;;;;;;;24.90;19.83;;;0.80;99.90;;;;;;4996147;28;20037;-86
2022/12/13 11:08:51;;;;;;;32.80;24.77;;;0.90;99.90;;;;;;4979873;28;20034;-86
2022/12/13 11:11:17;;;;;;;26.40;20.80;;;0.90;99.90;;;;;;5012145;28;20036;-86
2022/12/13 11:13:45;;;;;;;30.30;22.93;;;1.10;99.90;;;;;;4995754;28;20034;-86
2022/12/13 11:16:30;;;;;;;21.70;17.50;;;1.10;99.90;;;;;;4994764;28;20037;-88
2022/12/13 11:19:04;;;;;;;25.60;21.03;;;1.20;99.90;;;;;;4995158;28;20037;-87
2022/12/13 11:21:32;;;;;;;25.53;18.67;;;1.30;99.90;;;;;;5025128;28;20483;-87
2022/12/13 11:24:01;;;;;;;26.43;20.97;;;1.30;99.90;;;;;;5008636;28;20034;-87
2022/12/13 11:26:27;;;;;;;27.33;20.73;;;1.40;99.90;;;;;;5008268;28;20051;-86
2022/12/13 11:29:18;;;;;;;27.73;22.13;;;1.30;99.90;;;;;;5008496;28;20039;-87
2022/12/13 11:32:05;;;;;;;25.08;20.63;;;1.30;99.90;;;;;;4992426;28;20034;-85
2022/12/13 11:34:43;;;;;;;31.17;23.40;;;1.30;99.90;;;;;;4993221;28;20034;-86
2022/12/13 11:37:19;;;;;;;31.73;23.30;;;1.40;99.90;;;;;;4993044;28;20057;-85
2022/12/13 11:39:55;;;;;;;17.47;15.57;;;1.50;99.90;;;;;;5007907;28;20041;-85
2022/12/13 11:42:30;;;;;;;27.77;22.43;;;1.70;99.90;;;;;;5006936;28;20045;-85
2022/12/13 11:45:18;;;;;;;21.73;19.43;;;1.80;99.90;;;;;;5007038;28;20030;-86
2022/12/13 11:48:12;;;;;;;35.00;23.20;;;2.00;99.90;;;;;;5023598;28;20057;-86
2022/12/13 11:50:40;;;;;;;26.60;20.73;;;1.90;99.90;;;;;;4993575;28;20065;-84
2022/12/13 11:53:25;;;;;;;20.17;18.03;;;1.90;99.90;;;;;;5009985;28;20053;-86
2022/12/13 11:56:08;;;;;;;32.93;24.90;;;1.90;99.90;;;;;;5035182;28;20458;-85
2022/12/13 11:58:53;;;;;;;20.83;18.43;;;1.90;99.90;;;;;;5015403;28;20034;-86
2022/12/13 12:01:42;;;;;;;34.67;24.87;;;2.00;99.90;;;;;;5015530;28;20034;-85
2022/12/13 12:04:26;;;;;;;32.10;23.10;;;2.10;99.90;;;;;;5015328;28;20034;-85
2022/12/13 12:06:58;;;;;;;32.93;23.13;;;2.20;99.90;;;;;;5015175;28;20030;-85
2022/12/13 12:09:24;;;;;;;29.97;22.93;;;2.30;99.90;;;;;;4983338;28;20038;-85
2022/12/13 12:11:52;;;;;;;32.50;25.50;;;2.30;99.90;;;;;;4998691;28;20041;-85
2022/12/13 12:15:01;;;;;;;30.47;23.57;;;2.40;99.90;;;;;;4998257;28;20042;-85
2022/12/13 12:17:27;;;;;;;27.50;22.03;;;2.50;99.90;;;;;;5016589;28;20025;-85
2022/12/13 12:19:55;;;;;;;29.40;23.40;;;2.70;99.90;;;;;;4989554;28;20357;-85
2022/12/13 12:22:34;;;;;;;20.80;18.70;;;2.60;99.90;;;;;;5010122;28;20483;-85
2022/12/13 12:25:19;;;;;;;32.27;24.13;;;2.50;99.90;;;;;;4993786;28;20050;-85
2022/12/13 12:28:06;;;;;;;27.77;21.37;;;2.70;99.90;;;;;;5009781;28;20050;-85
2022/12/13 12:30:32;;;;;;;27.53;20.50;;;2.70;99.90;;;;;;4993196;28;20022;-85
2022/12/13 12:33:10;;;;;;;32.00;24.77;;;2.70;99.90;;;;;;4993901;28;20053;-84
2022/12/13 12:35:54;;;;;;;27.07;21.83;;;2.80;99.90;;;;;;5009761;28;20045;-85
2022/12/13 12:39:04;;;;;;;18.73;17.00;;;2.80;99.90;;;;;;4992879;28;20046;-84
2022/12/13 12:41:35;;;;;;;30.97;21.77;;;2.90;99.90;;;;;;4954705;29;20040;-85
2022/12/13 12:44:15;;;;;;;25.13;20.45;;;3.00;99.90;;;;;;4954713;29;20050;-85